createdAt,value
2022-11-26T00:01:21.372Z,19.42
2022-11-26T00:03:49.419Z,19.85
2022-11-26T00:06:26.392Z,22.88
2022-11-26T00:08:55.671Z,25.00
2022-11-26T00:11:22.239Z,23.23
2022-11-26T00:13:48.717Z,19.35
2022-11-26T00:16:15.704Z,21.10
2022-11-26T00:18:43.126Z,18.48
2022-11-26T00:21:23.760Z,21.30
2022-11-26T00:23:51.741Z,21.17
2022-11-26T00:26:21.102Z,18.70
2022-11-26T00:29:02.172Z,23.35
2022-11-26T00:31:29.203Z,24.58
2022-11-26T00:33:56.380Z,21.20
2022-11-26T00:36:30.247Z,21.88
2022-11-26T00:39:01.900Z,23.40
2022-11-26T00:41:38.216Z,20.75
2022-11-26T00:44:15.149Z,24.00
2022-11-26T00:46:41.650Z,29.73
2022-11-26T00:49:08.072Z,26.42
2022-11-26T00:51:34.769Z,21.83
2022-11-26T00:54:03.877Z,20.35
2022-11-26T00:56:36.462Z,30.00
2022-11-26T00:59:04.880Z,18.92
2022-11-26T01:01:32.785Z,19.08
2022-11-26T01:03:59.510Z,23.80
2022-11-26T01:06:32.515Z,22.48
2022-11-26T01:09:01.314Z,25.00
2022-11-26T01:11:27.722Z,29.33
2022-11-26T01:13:55.415Z,24.80
2022-11-26T01:16:27.975Z,26.88
2022-11-26T01:18:58.495Z,25.63
2022-11-26T01:21:27.507Z,27.70
2022-11-26T01:23:54.462Z,22.13
2022-11-26T01:26:24.528Z,24.67
2022-11-26T01:28:51.110Z,23.58
2022-11-26T01:31:22.435Z,20.25
2022-11-26T01:33:49.511Z,21.10
2022-11-26T01:36:31.945Z,23.17
2022-11-26T01:39:05.869Z,18.75
2022-11-26T01:41:59.637Z,18.58
2022-11-26T01:44:29.789Z,17.05
2022-11-26T01:46:57.253Z,20.67
2022-11-26T01:49:25.212Z,20.13
2022-11-26T01:52:23.591Z,19.75
2022-11-26T01:54:52.400Z,27.45
2022-11-26T01:57:23.980Z,31.42
2022-11-26T01:59:53.956Z,28.55
2022-11-26T02:02:23.843Z,27.02
2022-11-26T02:05:14.408Z,23.33
2022-11-26T02:07:41.635Z,19.75
2022-11-26T02:10:09.545Z,23.40
2022-11-26T02:12:37.422Z,17.17
2022-11-26T02:15:04.796Z,21.92
2022-11-26T02:17:37.783Z,20.60
2022-11-26T02:20:27.834Z,22.70
2022-11-26T02:22:57.280Z,16.58
2022-11-26T02:25:42.713Z,17.27
2022-11-26T02:28:26.010Z,18.73
2022-11-26T02:31:01.588Z,18.20
2022-11-26T02:33:34.789Z,26.13
2022-11-26T02:36:19.455Z,19.55
2022-11-26T02:38:46.031Z,23.30
2022-11-26T02:41:12.497Z,17.10
2022-11-26T02:43:39.388Z,26.35
2022-11-26T02:46:11.685Z,23.92
2022-11-26T02:48:45.528Z,20.73
2022-11-26T02:51:21.453Z,24.48
2022-11-26T02:53:51.099Z,17.25
2022-11-26T02:56:23.280Z,16.92
2022-11-26T02:58:50.988Z,18.67
2022-11-26T03:01:33.927Z,21.50
2022-11-26T03:04:08.387Z,15.25
2022-11-26T03:06:37.077Z,19.17
2022-11-26T03:09:04.111Z,17.90
2022-11-26T03:11:30.778Z,21.30
2022-11-26T03:13:57.368Z,17.27
2022-11-26T03:16:24.229Z,18.35
2022-11-26T03:18:50.728Z,14.32
2022-11-26T03:21:17.277Z,16.38
2022-11-26T03:23:43.692Z,19.23
2022-11-26T03:26:10.112Z,19.05
2022-11-26T03:28:36.583Z,18.98
2022-11-26T03:31:03.022Z,21.27
2022-11-26T03:33:29.536Z,21.10
2022-11-26T03:35:56.037Z,18.10
2022-11-26T03:38:22.524Z,19.80
2022-11-26T03:41:00.472Z,18.48
2022-11-26T03:43:27.397Z,18.98
2022-11-26T03:45:53.980Z,29.05
2022-11-26T03:48:20.796Z,26.48
2022-11-26T03:50:47.217Z,27.58
2022-11-26T03:53:13.829Z,23.20
2022-11-26T03:55:40.859Z,20.17
2022-11-26T03:58:07.242Z,26.33
2022-11-26T04:00:33.807Z,28.60
2022-11-26T04:03:00.831Z,23.60
2022-11-26T04:05:27.268Z,22.70
2022-11-26T04:07:54.189Z,29.38
2022-11-26T04:10:20.673Z,24.00
2022-11-26T04:12:47.478Z,21.70
2022-11-26T04:15:13.935Z,19.80
2022-11-26T04:17:40.391Z,27.60
2022-11-26T04:20:07.425Z,23.73
2022-11-26T04:22:33.846Z,24.45
2022-11-26T04:25:00.294Z,35.78
2022-11-26T04:27:26.744Z,26.77
2022-11-26T04:29:53.153Z,24.77
2022-11-26T04:32:19.631Z,26.00
2022-11-26T04:34:46.063Z,27.15
2022-11-26T04:37:12.958Z,27.13
2022-11-26T04:39:39.389Z,30.13
2022-11-26T04:42:05.809Z,28.15
2022-11-26T04:44:32.252Z,22.88
2022-11-26T04:46:58.772Z,28.27
2022-11-26T04:49:25.312Z,24.95
2022-11-26T04:51:51.723Z,32.85
2022-11-26T04:54:18.145Z,23.65
2022-11-26T04:56:44.601Z,30.70
2022-11-26T04:59:11.145Z,24.80
2022-11-26T05:01:37.618Z,25.48
2022-11-26T05:04:04.276Z,32.60
2022-11-26T05:06:30.716Z,29.92
2022-11-26T05:08:57.223Z,33.78
2022-11-26T05:11:23.660Z,31.23
2022-11-26T05:13:50.154Z,27.17
2022-11-26T05:16:16.583Z,25.65
2022-11-26T05:18:43.320Z,33.47
2022-11-26T05:21:09.714Z,35.60
2022-11-26T05:23:36.163Z,28.95
2022-11-26T05:26:02.620Z,26.95
2022-11-26T05:28:29.132Z,24.77
2022-11-26T05:31:03.096Z,27.67
2022-11-26T05:33:29.736Z,25.92
2022-11-26T05:35:56.575Z,28.83
2022-11-26T05:38:23.150Z,23.90
2022-11-26T05:40:49.599Z,31.65
2022-11-26T05:43:16.440Z,22.33
2022-11-26T05:45:42.991Z,27.30
2022-11-26T05:48:09.472Z,31.73
2022-11-26T05:50:36.332Z,30.35
2022-11-26T05:53:03.116Z,30.67
2022-11-26T05:55:29.667Z,27.08
2022-11-26T05:57:56.097Z,27.02
2022-11-26T06:00:22.709Z,23.48
2022-11-26T06:02:51.636Z,27.45
2022-11-26T06:05:18.240Z,18.65
2022-11-26T06:07:45.195Z,25.73
2022-11-26T06:10:12.836Z,26.63
2022-11-26T06:12:39.337Z,17.60
2022-11-26T06:15:06.440Z,26.65
2022-11-26T06:17:32.883Z,27.45
2022-11-26T06:19:59.766Z,22.10
2022-11-26T06:22:26.247Z,24.38
2022-11-26T06:24:52.786Z,29.45
2022-11-26T06:27:19.260Z,21.80
2022-11-26T06:29:45.760Z,22.95
2022-11-26T06:32:12.168Z,25.88
2022-11-26T06:34:38.970Z,27.52
2022-11-26T06:37:07.079Z,25.77
2022-11-26T06:39:33.480Z,30.17
2022-11-26T06:41:59.886Z,22.58
2022-11-26T06:44:26.330Z,24.58
2022-11-26T06:46:52.707Z,23.50
2022-11-26T06:49:19.126Z,29.60
2022-11-26T06:51:45.640Z,25.63
2022-11-26T06:54:12.069Z,26.40
2022-11-26T06:56:39.288Z,32.55
2022-11-26T06:59:06.207Z,25.33
2022-11-26T07:01:32.640Z,29.08
2022-11-26T07:03:59.280Z,34.78
2022-11-26T07:06:28.367Z,26.67
2022-11-26T07:08:57.742Z,26.10
2022-11-26T07:11:26.035Z,34.22
2022-11-26T07:13:52.751Z,31.38
2022-11-26T07:16:19.301Z,26.95
2022-11-26T07:18:51.136Z,30.77
2022-11-26T07:21:18.443Z,28.67
2022-11-26T07:23:45.534Z,27.20
2022-11-26T07:26:13.677Z,29.55
2022-11-26T07:28:40.655Z,29.98
2022-11-26T07:31:16.168Z,31.17
2022-11-26T07:33:43.224Z,33.15
2022-11-26T07:36:14.858Z,36.22
2022-11-26T07:38:41.259Z,28.83
2022-11-26T07:41:10.679Z,31.00
2022-11-26T07:43:39.033Z,34.92
2022-11-26T07:46:07.572Z,39.22
2022-11-26T07:48:35.060Z,33.67
2022-11-26T07:51:02.301Z,29.30
2022-11-26T07:53:33.544Z,39.47
2022-11-26T07:56:00.417Z,38.85
2022-11-26T07:58:26.874Z,36.25
2022-11-26T08:00:54.773Z,37.25
2022-11-26T08:03:21.926Z,35.88
2022-11-26T08:05:48.303Z,40.00
2022-11-26T08:08:14.835Z,39.53
2022-11-26T08:10:41.280Z,37.60
2022-11-26T08:13:07.694Z,30.85
2022-11-26T08:15:35.391Z,35.22
2022-11-26T08:18:01.820Z,33.60
2022-11-26T08:20:29.208Z,29.52
2022-11-26T08:22:55.952Z,30.63
2022-11-26T08:25:22.351Z,29.95
2022-11-26T08:27:49.042Z,35.08
2022-11-26T08:30:15.585Z,34.25
2022-11-26T08:32:41.974Z,33.95
2022-11-26T08:35:08.523Z,30.08
2022-11-26T08:37:35.584Z,34.58
2022-11-26T08:40:01.943Z,28.95
2022-11-26T08:42:28.372Z,34.97
2022-11-26T08:44:54.892Z,31.85
2022-11-26T08:47:21.280Z,32.75
2022-11-26T08:49:49.521Z,37.83
2022-11-26T08:52:16.176Z,31.85
2022-11-26T08:54:45.297Z,40.85
2022-11-26T08:57:12.058Z,37.40
2022-11-26T08:59:38.451Z,32.70
2022-11-26T09:02:04.988Z,35.63
2022-11-26T09:04:31.874Z,35.65
2022-11-26T09:06:58.262Z,34.67
2022-11-26T09:09:24.719Z,27.80
2022-11-26T09:12:00.247Z,31.90
2022-11-26T09:14:29.082Z,39.25
2022-11-26T09:16:57.560Z,33.92
2022-11-26T09:19:24.738Z,35.67
2022-11-26T09:21:51.245Z,34.00
2022-11-26T09:24:18.058Z,31.63
2022-11-26T09:26:44.691Z,31.75
2022-11-26T09:29:14.168Z,29.45
2022-11-26T09:32:00.660Z,28.10
2022-11-26T09:34:28.399Z,30.40
2022-11-26T09:36:54.886Z,25.65
2022-11-26T09:39:21.263Z,28.20
2022-11-26T09:42:03.924Z,26.48
2022-11-26T09:45:01.319Z,25.00
2022-11-26T09:47:37.065Z,27.95
2022-11-26T09:50:06.120Z,27.00
2022-11-26T09:52:50.645Z,32.53
2022-11-26T09:55:24.288Z,23.23
2022-11-26T09:58:12.669Z,20.83
2022-11-26T10:00:42.751Z,27.02
2022-11-26T10:03:15.884Z,23.02
2022-11-26T10:05:50.298Z,23.98
2022-11-26T10:08:26.737Z,24.20
2022-11-26T10:11:25.813Z,24.33
2022-11-26T10:13:59.225Z,22.05
2022-11-26T10:19:09.182Z,18.13
2022-11-26T10:24:34.912Z,22.88
2022-11-26T10:27:10.145Z,20.85
2022-11-26T10:29:47.343Z,21.50
2022-11-26T10:32:22.699Z,22.85
2022-11-26T10:34:57.713Z,22.58
2022-11-26T10:37:28.210Z,20.88
2022-11-26T10:40:02.120Z,20.70
2022-11-26T10:42:42.297Z,24.80
2022-11-26T10:45:21.229Z,20.70
2022-11-26T10:47:47.665Z,19.33
2022-11-26T10:53:19.534Z,19.83
2022-11-26T10:55:45.995Z,15.88
2022-11-26T10:58:20.288Z,20.67
2022-11-26T11:00:49.735Z,19.45
2022-11-26T11:03:38.234Z,22.42
2022-11-26T11:06:20.159Z,19.58
2022-11-26T11:08:48.853Z,19.38
2022-11-26T11:11:27.009Z,22.80
2022-11-26T11:13:54.027Z,19.10
2022-11-26T11:16:39.707Z,17.08
2022-11-26T11:19:21.971Z,16.45
2022-11-26T11:21:48.776Z,19.30
2022-11-26T11:24:26.970Z,26.05
2022-11-26T11:26:56.620Z,22.67
2022-11-26T11:29:34.323Z,18.58
2022-11-26T11:32:04.312Z,21.17
2022-11-26T11:34:35.219Z,19.40
2022-11-26T11:37:07.296Z,21.25
2022-11-26T11:39:35.960Z,21.13
2022-11-26T11:42:06.580Z,18.65
2022-11-26T11:44:45.864Z,20.02
2022-11-26T11:47:32.276Z,19.08
2022-11-26T11:50:23.551Z,23.83
2022-11-26T11:52:55.938Z,26.50
2022-11-26T11:55:30.066Z,21.42
2022-11-26T11:58:24.407Z,20.60
2022-11-26T12:01:25.168Z,23.67
2022-11-26T12:04:00.785Z,19.35
2022-11-26T12:06:50.477Z,18.98
2022-11-26T12:09:22.293Z,20.48
2022-11-26T12:12:10.177Z,20.45
2022-11-26T12:14:42.791Z,28.10
2022-11-26T12:17:17.544Z,18.83
2022-11-26T12:20:00.883Z,17.52
2022-11-26T12:22:35.289Z,24.98
2022-11-26T12:25:14.260Z,23.65
2022-11-26T12:27:52.628Z,21.67
2022-11-26T12:30:22.817Z,21.70
2022-11-26T12:32:57.717Z,26.27
2022-11-26T12:35:39.431Z,18.88
2022-11-26T12:38:29.723Z,17.30
2022-11-26T12:41:05.858Z,18.80
2022-11-26T12:44:10.148Z,21.55
2022-11-26T12:49:28.709Z,22.02
2022-11-26T12:52:14.431Z,20.17
2022-11-26T12:55:01.755Z,19.63
2022-11-26T12:57:42.620Z,18.65
2022-11-26T13:00:25.035Z,18.20
2022-11-26T13:02:52.598Z,24.23
2022-11-26T13:05:25.242Z,19.88
2022-11-26T13:08:40.011Z,16.23
2022-11-26T13:11:18.755Z,21.17
2022-11-26T13:13:58.635Z,15.45
2022-11-26T13:16:52.329Z,18.05
2022-11-26T13:19:32.012Z,24.05
2022-11-26T13:22:11.815Z,21.27
2022-11-26T13:24:56.436Z,19.83
2022-11-26T13:27:44.135Z,16.98
2022-11-26T13:30:13.343Z,15.40
2022-11-26T13:33:17.164Z,15.95
2022-11-26T13:36:17.437Z,16.23
2022-11-26T13:39:21.678Z,19.20
2022-11-26T13:44:55.480Z,21.02
2022-11-26T13:47:24.898Z,15.65
2022-11-26T13:50:05.523Z,19.23
2022-11-26T13:52:39.900Z,19.35
2022-11-26T13:55:16.208Z,19.33
2022-11-26T13:57:49.352Z,14.55
2022-11-26T14:00:33.073Z,13.90
2022-11-26T14:05:51.635Z,15.82
2022-11-26T14:08:46.322Z,16.98
2022-11-26T14:11:33.366Z,11.57
2022-11-26T14:14:24.635Z,15.70
2022-11-26T14:17:12.625Z,19.83
2022-11-26T14:19:44.978Z,16.35
2022-11-26T14:22:11.295Z,16.75
2022-11-26T14:24:49.731Z,16.00
2022-11-26T14:27:23.172Z,12.35
2022-11-26T14:30:08.633Z,15.20
2022-11-26T14:32:54.501Z,15.13
2022-11-26T14:35:34.755Z,12.65
2022-11-26T14:38:04.057Z,13.93
2022-11-26T14:40:33.389Z,15.68
2022-11-26T14:43:19.278Z,18.60
2022-11-26T14:45:48.156Z,16.35
2022-11-26T14:48:22.844Z,16.67
2022-11-26T14:50:49.797Z,11.60
2022-11-26T14:53:16.426Z,20.90
2022-11-26T14:55:44.779Z,18.70
2022-11-26T14:58:29.995Z,18.60
2022-11-26T15:01:18.827Z,17.58
2022-11-26T15:03:57.303Z,16.67
2022-11-26T15:06:43.173Z,17.15
2022-11-26T15:09:16.920Z,15.48
2022-11-26T15:12:16.086Z,16.23
2022-11-26T15:14:52.794Z,15.68
2022-11-26T15:17:22.556Z,13.85
2022-11-26T15:19:53.807Z,14.75
2022-11-26T15:22:35.174Z,13.15
2022-11-26T15:25:01.777Z,16.00
2022-11-26T15:27:30.224Z,13.13
2022-11-26T15:29:56.720Z,15.93
2022-11-26T15:32:28.995Z,15.88
2022-11-26T15:34:58.818Z,11.93
2022-11-26T15:37:25.407Z,20.40
2022-11-26T15:40:22.637Z,13.63
2022-11-26T15:42:52.203Z,12.02
2022-11-26T15:45:21.192Z,11.00
2022-11-26T15:47:50.804Z,12.10
2022-11-26T15:50:25.951Z,12.85
2022-11-26T15:53:00.569Z,12.68
2022-11-26T15:55:30.888Z,15.23
2022-11-26T15:58:00.209Z,10.93
2022-11-26T16:00:34.444Z,14.50
2022-11-26T16:03:01.166Z,14.85
2022-11-26T16:05:30.622Z,13.05
2022-11-26T16:07:59.578Z,13.05
2022-11-26T16:10:27.813Z,10.35
2022-11-26T16:13:18.153Z,11.20
2022-11-26T16:15:47.687Z,10.65
2022-11-26T16:18:18.315Z,10.48
2022-11-26T16:20:45.015Z,15.85
2022-11-26T16:23:23.968Z,11.98
2022-11-26T16:26:08.191Z,67.03
2022-11-26T16:28:34.717Z,26.27
2022-11-26T16:31:01.231Z,23.42
2022-11-26T16:33:28.882Z,17.88
2022-11-26T16:35:55.682Z,21.38
2022-11-26T16:38:25.415Z,12.93
2022-11-26T16:40:52.992Z,13.15
2022-11-26T16:43:20.340Z,13.95
2022-11-26T16:45:49.242Z,14.80
2022-11-26T16:48:23.751Z,12.00
2022-11-26T16:50:50.419Z,12.13
2022-11-26T16:53:17.041Z,11.45
2022-11-26T16:55:43.470Z,12.73
2022-11-26T16:58:19.479Z,11.65
2022-11-26T17:00:45.933Z,11.40
2022-11-26T17:03:14.415Z,13.27
2022-11-26T17:05:41.495Z,11.27
2022-11-26T17:08:11.736Z,13.40
2022-11-26T17:10:38.142Z,10.60
2022-11-26T17:13:04.599Z,11.90
2022-11-26T17:15:30.994Z,20.95
2022-11-26T17:18:03.436Z,31.55
2022-11-26T17:20:30.083Z,37.97
2022-11-26T17:22:56.462Z,28.25
2022-11-26T17:25:22.815Z,12.50
2022-11-26T17:27:49.292Z,8.98
2022-11-26T17:30:19.123Z,14.45
2022-11-26T17:32:45.616Z,14.88
2022-11-26T17:35:12.022Z,11.60
2022-11-26T17:37:38.914Z,13.50
2022-11-26T17:40:15.027Z,15.38
2022-11-26T17:42:41.594Z,13.85
2022-11-26T17:45:08.580Z,13.55
2022-11-26T17:47:34.946Z,12.93
2022-11-26T17:50:01.513Z,18.65
2022-11-26T17:52:27.970Z,13.10
2022-11-26T17:54:54.322Z,17.10
2022-11-26T17:57:22.716Z,12.85
2022-11-26T17:59:49.085Z,11.10
2022-11-26T18:02:15.479Z,16.30
2022-11-26T18:04:41.966Z,14.32
2022-11-26T18:07:15.770Z,10.95
2022-11-26T18:09:42.783Z,15.35
2022-11-26T18:12:24.870Z,13.93
2022-11-26T18:14:53.533Z,13.93
2022-11-26T18:17:20.040Z,13.65
2022-11-26T18:19:46.821Z,12.95
2022-11-26T18:22:20.586Z,13.23
2022-11-26T18:24:57.632Z,13.75
2022-11-26T18:27:27.507Z,13.90
2022-11-26T18:29:53.893Z,13.25
2022-11-26T18:32:20.892Z,16.48
2022-11-26T18:34:50.441Z,14.93
2022-11-26T18:37:17.251Z,18.92
2022-11-26T18:39:43.755Z,14.40
2022-11-26T18:44:57.694Z,13.43
2022-11-26T18:47:24.227Z,15.18
2022-11-26T18:49:50.982Z,17.60
2022-11-26T18:52:17.537Z,14.13
2022-11-26T18:54:43.918Z,14.15
2022-11-26T18:57:10.313Z,16.63
2022-11-26T18:59:36.968Z,14.90
2022-11-26T19:02:03.664Z,14.80
2022-11-26T19:04:30.114Z,19.25
2022-11-26T19:06:56.575Z,40.35
2022-11-26T19:09:23.913Z,46.20
2022-11-26T19:11:52.614Z,22.00
2022-11-26T19:14:19.026Z,19.20
2022-11-26T19:16:48.675Z,15.07
2022-11-26T19:19:15.059Z,19.70
2022-11-26T19:21:41.866Z,14.43
2022-11-26T19:24:10.434Z,20.67
2022-11-26T19:26:37.599Z,14.05
2022-11-26T19:29:05.769Z,13.00
2022-11-26T19:31:39.479Z,12.05
2022-11-26T19:34:10.316Z,18.05
2022-11-26T19:36:37.350Z,14.13
2022-11-26T19:39:05.070Z,17.08
2022-11-26T19:41:32.106Z,22.20
2022-11-26T19:44:03.965Z,18.15
2022-11-26T19:46:30.997Z,15.43
2022-11-26T19:48:57.559Z,20.35
2022-11-26T19:51:25.093Z,17.23
2022-11-26T19:53:53.941Z,16.40
2022-11-26T19:56:23.655Z,14.52
2022-11-26T19:58:53.673Z,17.70
2022-11-26T20:01:21.186Z,17.17
2022-11-26T20:03:47.910Z,16.90
2022-11-26T20:06:20.220Z,20.73
2022-11-26T20:08:47.611Z,18.80
2022-11-26T20:11:15.662Z,17.23
2022-11-26T20:13:43.773Z,21.75
2022-11-26T20:16:13.420Z,21.35
2022-11-26T20:18:40.617Z,19.75
2022-11-26T20:21:09.836Z,24.00
2022-11-26T20:23:37.438Z,18.45
2022-11-26T20:26:04.937Z,16.67
2022-11-26T20:28:31.303Z,19.02
2022-11-26T20:30:57.712Z,23.13
2022-11-26T20:33:24.144Z,14.60
2022-11-26T20:35:51.291Z,16.98
2022-11-26T20:38:17.769Z,16.80
2022-11-26T20:40:45.090Z,18.02
2022-11-26T20:43:12.103Z,16.15
2022-11-26T20:45:38.922Z,17.45
2022-11-26T20:48:05.701Z,15.70
2022-11-26T20:50:32.155Z,15.05
2022-11-26T20:52:58.504Z,16.13
2022-11-26T20:55:25.224Z,13.88
2022-11-26T20:57:51.772Z,14.75
2022-11-26T21:00:23.525Z,13.43
2022-11-26T21:02:52.723Z,14.48
2022-11-26T21:05:19.370Z,14.32
2022-11-26T21:07:45.839Z,14.88
2022-11-26T21:10:13.537Z,15.60
2022-11-26T21:12:39.927Z,16.17
2022-11-26T21:15:06.926Z,12.90
2022-11-26T21:17:33.457Z,15.95
2022-11-26T21:19:59.925Z,13.93
2022-11-26T21:22:26.355Z,17.38
2022-11-26T21:24:52.774Z,14.32
2022-11-26T21:27:19.165Z,11.27
2022-11-26T21:29:46.425Z,17.88
2022-11-26T21:32:12.879Z,17.70
2022-11-26T21:34:39.781Z,17.98
2022-11-26T21:37:06.200Z,12.57
2022-11-26T21:39:32.653Z,17.25
2022-11-26T21:41:59.009Z,16.75
2022-11-26T21:44:25.402Z,17.55
2022-11-26T21:46:51.815Z,15.85
2022-11-26T21:49:18.232Z,14.55
2022-11-26T21:51:44.724Z,15.30
2022-11-26T21:54:11.290Z,14.10
2022-11-26T21:56:37.955Z,15.15
2022-11-26T21:59:04.364Z,19.05
2022-11-26T22:01:33.886Z,16.73
2022-11-26T22:04:07.291Z,16.50
2022-11-26T22:09:00.549Z,15.82
2022-11-26T22:11:32.723Z,14.82
2022-11-26T22:13:59.296Z,16.08
2022-11-26T22:16:27.437Z,15.63
2022-11-26T22:18:55.947Z,14.10
2022-11-26T22:21:23.680Z,19.85
2022-11-26T22:23:51.138Z,15.52
2022-11-26T22:26:18.477Z,18.30
2022-11-26T22:28:45.435Z,14.10
2022-11-26T22:31:15.283Z,13.23
2022-11-26T22:33:41.791Z,17.40
2022-11-26T22:36:08.540Z,16.23
2022-11-26T22:38:36.681Z,19.45
2022-11-26T22:41:04.417Z,20.42
2022-11-26T22:43:31.319Z,17.73
2022-11-26T22:45:58.523Z,17.15
2022-11-26T22:48:25.047Z,22.27
2022-11-26T22:50:55.738Z,21.92
2022-11-26T22:53:22.868Z,24.23
2022-11-26T22:55:53.828Z,22.33
2022-11-26T22:58:21.466Z,18.60
2022-11-26T23:00:58.592Z,20.83
2022-11-26T23:03:26.781Z,19.98
2022-11-26T23:05:53.515Z,24.00
2022-11-26T23:08:21.112Z,25.85
2022-11-26T23:10:51.115Z,23.73
2022-11-26T23:13:17.833Z,26.02
2022-11-26T23:15:45.702Z,23.65
2022-11-26T23:18:14.775Z,21.58
2022-11-26T23:20:42.693Z,22.17
2022-11-26T23:23:09.767Z,19.50
2022-11-26T23:25:40.470Z,16.77
2022-11-26T23:28:07.575Z,17.20
2022-11-26T23:30:35.648Z,22.58
2022-11-26T23:33:02.185Z,18.65
2022-11-26T23:35:28.726Z,19.85
2022-11-26T23:37:55.157Z,23.88
2022-11-26T23:40:21.616Z,19.75
2022-11-26T23:42:48.317Z,27.08
2022-11-26T23:45:14.691Z,19.20
2022-11-26T23:47:41.062Z,20.25
2022-11-26T23:50:08.145Z,22.90
2022-11-26T23:52:36.109Z,18.70
2022-11-26T23:55:02.769Z,18.60
2022-11-26T23:57:29.204Z,24.27
2022-11-26T23:59:55.638Z,20.45
